sensor_id;sensor_type;location;lat;lon;timestamp;pressure;altitude;pressure_sealevel;temperature;humidity
52693;BME280;68218;51.012;-1.648;2024-03-08T00:00:50;100249.16;;;5.33;97.30
52693;BME280;68218;51.012;-1.648;2024-03-08T00:03:16;100242.72;;;5.22;97.72
52693;BME280;68218;51.012;-1.648;2024-03-08T00:05:41;100241.69;;;5.23;97.93
52693;BME280;68218;51.012;-1.648;2024-03-08T00:08:07;100236.19;;;5.18;98.48
52693;BME280;68218;51.012;-1.648;2024-03-08T00:10:35;100240.50;;;5.19;98.63
52693;BME280;68218;51.012;-1.648;2024-03-08T00:13:00;100231.34;;;5.27;98.07
52693;BME280;68218;51.012;-1.648;2024-03-08T00:15:25;100239.53;;;5.14;98.74
52693;BME280;68218;51.012;-1.648;2024-03-08T00:17:51;100236.56;;;5.22;98.26
52693;BME280;68218;51.012;-1.648;2024-03-08T00:20:17;100235.66;;;5.28;98.20
52693;BME280;68218;51.012;-1.648;2024-03-08T00:22:45;100239.38;;;5.27;98.08
52693;BME280;68218;51.012;-1.648;2024-03-08T00:25:11;100229.72;;;5.26;97.81
52693;BME280;68218;51.012;-1.648;2024-03-08T00:27:39;100229.13;;;5.24;98.04
52693;BME280;68218;51.012;-1.648;2024-03-08T00:30:06;100221.06;;;5.12;99.21
52693;BME280;68218;51.012;-1.648;2024-03-08T00:32:32;100212.44;;;5.10;98.88
52693;BME280;68218;51.012;-1.648;2024-03-08T00:34:58;100213.72;;;5.07;99.64
52693;BME280;68218;51.012;-1.648;2024-03-08T00:37:23;100211.78;;;5.15;99.48
52693;BME280;68218;51.012;-1.648;2024-03-08T00:39:52;100211.88;;;5.08;99.64
52693;BME280;68218;51.012;-1.648;2024-03-08T00:42:18;100190.47;;;5.08;99.68
52693;BME280;68218;51.012;-1.648;2024-03-08T00:44:44;100199.78;;;5.05;99.80
52693;BME280;68218;51.012;-1.648;2024-03-08T00:47:10;100194.44;;;5.05;99.78
52693;BME280;68218;51.012;-1.648;2024-03-08T00:49:36;100198.38;;;5.03;100.00
52693;BME280;68218;51.012;-1.648;2024-03-08T00:52:05;100196.50;;;5.03;100.00
52693;BME280;68218;51.012;-1.648;2024-03-08T00:54:36;100189.19;;;4.99;100.00
52693;BME280;68218;51.012;-1.648;2024-03-08T00:57:02;100184.91;;;5.10;100.00
52693;BME280;68218;51.012;-1.648;2024-03-08T00:59:31;100181.97;;;4.99;100.00
52693;BME280;68218;51.012;-1.648;2024-03-08T01:02:00;100178.63;;;5.04;100.00
52693;BME280;68218;51.012;-1.648;2024-03-08T01:04:26;100175.72;;;5.05;100.00
52693;BME280;68218;51.012;-1.648;2024-03-08T01:06:57;100163.06;;;5.13;99.67
52693;BME280;68218;51.012;-1.648;2024-03-08T01:09:23;100174.41;;;4.96;100.00
52693;BME280;68218;51.012;-1.648;2024-03-08T01:11:49;100166.34;;;5.15;99.73
52693;BME280;68218;51.012;-1.648;2024-03-08T01:14:15;100166.34;;;5.15;99.70
52693;BME280;68218;51.012;-1.648;2024-03-08T01:16:40;100162.13;;;5.07;100.00
52693;BME280;68218;51.012;-1.648;2024-03-08T01:19:06;100159.09;;;5.03;100.00
52693;BME280;68218;51.012;-1.648;2024-03-08T01:21:31;100167.31;;;5.02;100.00
52693;BME280;68218;51.012;-1.648;2024-03-08T01:23:56;100156.09;;;5.12;99.78
52693;BME280;68218;51.012;-1.648;2024-03-08T01:26:22;100160.94;;;5.03;100.00
52693;BME280;68218;51.012;-1.648;2024-03-08T01:28:49;100151.69;;;5.05;100.00
52693;BME280;68218;51.012;-1.648;2024-03-08T01:31:14;100148.31;;;5.10;99.45
52693;BME280;68218;51.012;-1.648;2024-03-08T01:33:41;100145.69;;;4.92;100.00
52693;BME280;68218;51.012;-1.648;2024-03-08T01:36:06;100136.28;;;4.89;100.00
52693;BME280;68218;51.012;-1.648;2024-03-08T01:38:31;100129.66;;;4.92;100.00
52693;BME280;68218;51.012;-1.648;2024-03-08T01:40:57;100120.13;;;4.84;100.00
52693;BME280;68218;51.012;-1.648;2024-03-08T01:43:26;100112.22;;;4.89;100.00
52693;BME280;68218;51.012;-1.648;2024-03-08T01:45:55;100110.94;;;4.92;100.00
52693;BME280;68218;51.012;-1.648;2024-03-08T01:48:23;100090.06;;;5.00;100.00
52693;BME280;68218;51.012;-1.648;2024-03-08T01:50:49;100091.97;;;4.81;100.00
52693;BME280;68218;51.012;-1.648;2024-03-08T01:53:17;100095.25;;;4.83;100.00
52693;BME280;68218;51.012;-1.648;2024-03-08T01:55:45;100098.16;;;4.82;100.00
52693;BME280;68218;51.012;-1.648;2024-03-08T01:58:12;100093.25;;;4.79;100.00
52693;BME280;68218;51.012;-1.648;2024-03-08T02:00:40;100089.56;;;4.80;100.00
52693;BME280;68218;51.012;-1.648;2024-03-08T02:03:07;100087.25;;;4.83;100.00
52693;BME280;68218;51.012;-1.648;2024-03-08T02:05:32;100072.59;;;4.86;100.00
52693;BME280;68218;51.012;-1.648;2024-03-08T02:07:58;100062.09;;;4.73;100.00
52693;BME280;68218;51.012;-1.648;2024-03-08T02:10:23;100062.81;;;4.68;100.00
52693;BME280;68218;51.012;-1.648;2024-03-08T02:12:48;100056.28;;;4.64;100.00
52693;BME280;68218;51.012;-1.648;2024-03-08T02:15:14;100059.22;;;4.74;100.00
52693;BME280;68218;51.012;-1.648;2024-03-08T02:17:40;100054.56;;;4.69;100.00
52693;BME280;68218;51.012;-1.648;2024-03-08T02:20:05;100043.50;;;4.66;100.00
52693;BME280;68218;51.012;-1.648;2024-03-08T02:22:31;100041.09;;;4.64;100.00
52693;BME280;68218;51.012;-1.648;2024-03-08T02:24:59;100031.66;;;4.62;100.00
52693;BME280;68218;51.012;-1.648;2024-03-08T02:27:26;100027.25;;;4.67;100.00
52693;BME280;68218;51.012;-1.648;2024-03-08T02:29:54;100032.09;;;4.59;100.00
52693;BME280;68218;51.012;-1.648;2024-03-08T02:32:23;100020.41;;;4.60;100.00
52693;BME280;68218;51.012;-1.648;2024-03-08T02:34:49;100011.56;;;4.59;100.00
52693;BME280;68218;51.012;-1.648;2024-03-08T02:37:14;100006.81;;;4.61;100.00
52693;BME280;68218;51.012;-1.648;2024-03-08T02:39:40;100006.66;;;4.44;100.00
52693;BME280;68218;51.012;-1.648;2024-03-08T02:42:06;100003.31;;;4.61;100.00
52693;BME280;68218;51.012;-1.648;2024-03-08T02:44:32;99995.69;;;4.64;100.00
52693;BME280;68218;51.012;-1.648;2024-03-08T02:46:58;99993.78;;;4.53;100.00
52693;BME280;68218;51.012;-1.648;2024-03-08T02:49:25;99992.63;;;4.49;100.00
52693;BME280;68218;51.012;-1.648;2024-03-08T02:51:51;99982.53;;;4.51;100.00
52693;BME280;68218;51.012;-1.648;2024-03-08T02:54:17;99986.22;;;4.50;100.00
52693;BME280;68218;51.012;-1.648;2024-03-08T02:56:42;99981.25;;;4.54;100.00
52693;BME280;68218;51.012;-1.648;2024-03-08T02:59:07;99972.66;;;4.52;100.00
52693;BME280;68218;51.012;-1.648;2024-03-08T03:01:33;99973.00;;;4.55;100.00
52693;BME280;68218;51.012;-1.648;2024-03-08T03:04:00;99972.53;;;4.46;100.00
52693;BME280;68218;51.012;-1.648;2024-03-08T03:06:25;99966.72;;;4.49;100.00
52693;BME280;68218;51.012;-1.648;2024-03-08T03:08:51;99959.28;;;4.52;100.00
52693;BME280;68218;51.012;-1.648;2024-03-08T03:11:16;99955.34;;;4.42;100.00
52693;BME280;68218;51.012;-1.648;2024-03-08T03:13:42;99957.06;;;4.48;100.00
52693;BME280;68218;51.012;-1.648;2024-03-08T03:16:17;99948.16;;;4.55;100.00
52693;BME280;68218;51.012;-1.648;2024-03-08T03:18:43;99954.75;;;4.52;100.00
52693;BME280;68218;51.012;-1.648;2024-03-08T03:21:08;99948.94;;;4.43;100.00
52693;BME280;68218;51.012;-1.648;2024-03-08T03:23:34;99932.25;;;4.48;100.00
52693;BME280;68218;51.012;-1.648;2024-03-08T03:26:00;99939.66;;;4.46;100.00
52693;BME280;68218;51.012;-1.648;2024-03-08T03:28:25;99933.50;;;4.45;100.00
52693;BME280;68218;51.012;-1.648;2024-03-08T03:30:51;99927.47;;;4.38;100.00
52693;BME280;68218;51.012;-1.648;2024-03-08T03:33:18;99917.72;;;4.44;100.00
52693;BME280;68218;51.012;-1.648;2024-03-08T03:35:43;99921.53;;;4.36;100.00
52693;BME280;68218;51.012;-1.648;2024-03-08T03:38:09;99922.13;;;4.38;100.00
52693;BME280;68218;51.012;-1.648;2024-03-08T03:40:35;99914.69;;;4.28;100.00
52693;BME280;68218;51.012;-1.648;2024-03-08T03:43:00;99905.53;;;4.48;100.00
52693;BME280;68218;51.012;-1.648;2024-03-08T03:45:27;99903.66;;;4.37;100.00
52693;BME280;68218;51.012;-1.648;2024-03-08T03:47:52;99906.19;;;4.31;100.00
52693;BME280;68218;51.012;-1.648;2024-03-08T03:50:18;99892.63;;;4.33;100.00
52693;BME280;68218;51.012;-1.648;2024-03-08T03:52:48;99894.16;;;4.41;100.00
52693;BME280;68218;51.012;-1.648;2024-03-08T03:55:14;99885.44;;;4.34;100.00
52693;BME280;68218;51.012;-1.648;2024-03-08T03:57:40;99893.69;;;4.44;100.00
52693;BME280;68218;51.012;-1.648;2024-03-08T04:00:07;99889.03;;;4.27;100.00
52693;BME280;68218;51.012;-1.648;2024-03-08T04:02:38;99879.84;;;4.35;100.00
52693;BME280;68218;51.012;-1.648;2024-03-08T04:05:07;99873.00;;;4.27;100.00
52693;BME280;68218;51.012;-1.648;2024-03-08T04:07:33;99876.84;;;4.31;100.00
52693;BME280;68218;51.012;-1.648;2024-03-08T04:09:59;99871.84;;;4.23;100.00
52693;BME280;68218;51.012;-1.648;2024-03-08T04:12:25;99863.84;;;4.35;100.00
52693;BME280;68218;51.012;-1.648;2024-03-08T04:14:50;99863.03;;;4.35;100.00
52693;BME280;68218;51.012;-1.648;2024-03-08T04:17:15;99858.97;;;4.32;100.00
52693;BME280;68218;51.012;-1.648;2024-03-08T04:19:42;99860.34;;;4.23;100.00
52693;BME280;68218;51.012;-1.648;2024-03-08T04:22:07;99850.38;;;4.18;100.00
52693;BME280;68218;51.012;-1.648;2024-03-08T04:24:33;99861.75;;;4.25;100.00
52693;BME280;68218;51.012;-1.648;2024-03-08T04:26:58;99853.53;;;4.39;100.00
52693;BME280;68218;51.012;-1.648;2024-03-08T04:29:24;99856.28;;;4.20;100.00
52693;BME280;68218;51.012;-1.648;2024-03-08T04:31:49;99848.31;;;4.32;100.00
52693;BME280;68218;51.012;-1.648;2024-03-08T04:34:14;99850.13;;;4.20;100.00
52693;BME280;68218;51.012;-1.648;2024-03-08T04:36:40;99850.59;;;4.17;100.00
52693;BME280;68218;51.012;-1.648;2024-03-08T04:39:05;99837.38;;;4.10;100.00
52693;BME280;68218;51.012;-1.648;2024-03-08T04:41:30;99842.94;;;4.20;100.00
52693;BME280;68218;51.012;-1.648;2024-03-08T04:43:57;99836.66;;;4.15;100.00
52693;BME280;68218;51.012;-1.648;2024-03-08T04:46:23;99846.66;;;4.19;100.00
52693;BME280;68218;51.012;-1.648;2024-03-08T04:48:48;99840.28;;;4.20;100.00
52693;BME280;68218;51.012;-1.648;2024-03-08T04:51:14;99834.38;;;4.18;100.00
52693;BME280;68218;51.012;-1.648;2024-03-08T04:53:40;99826.81;;;4.15;100.00
52693;BME280;68218;51.012;-1.648;2024-03-08T04:56:06;99830.16;;;4.10;100.00
52693;BME280;68218;51.012;-1.648;2024-03-08T04:58:33;99819.84;;;4.14;100.00
52693;BME280;68218;51.012;-1.648;2024-03-08T05:01:01;99815.31;;;4.15;100.00
52693;BME280;68218;51.012;-1.648;2024-03-08T05:03:26;99815.44;;;4.08;100.00
52693;BME280;68218;51.012;-1.648;2024-03-08T05:05:52;99822.84;;;4.06;100.00
52693;BME280;68218;51.012;-1.648;2024-03-08T05:08:18;99810.34;;;4.18;100.00
52693;BME280;68218;51.012;-1.648;2024-03-08T05:10:44;99804.66;;;4.03;100.00
52693;BME280;68218;51.012;-1.648;2024-03-08T05:13:09;99802.78;;;4.03;100.00
52693;BME280;68218;51.012;-1.648;2024-03-08T05:15:34;99797.53;;;3.97;100.00
52693;BME280;68218;51.012;-1.648;2024-03-08T05:18:00;99799.53;;;4.01;100.00
52693;BME280;68218;51.012;-1.648;2024-03-08T05:20:25;99797.09;;;4.00;100.00
52693;BME280;68218;51.012;-1.648;2024-03-08T05:22:51;99794.31;;;4.06;100.00
52693;BME280;68218;51.012;-1.648;2024-03-08T05:25:17;99789.09;;;4.00;100.00
52693;BME280;68218;51.012;-1.648;2024-03-08T05:27:43;99790.00;;;4.05;100.00
52693;BME280;68218;51.012;-1.648;2024-03-08T05:30:08;99787.81;;;4.02;100.00
52693;BME280;68218;51.012;-1.648;2024-03-08T05:32:40;99782.69;;;4.01;100.00
52693;BME280;68218;51.012;-1.648;2024-03-08T05:35:09;99778.41;;;4.00;100.00
52693;BME280;68218;51.012;-1.648;2024-03-08T05:37:35;99786.06;;;3.96;100.00
52693;BME280;68218;51.012;-1.648;2024-03-08T05:40:01;99780.13;;;3.94;100.00
52693;BME280;68218;51.012;-1.648;2024-03-08T05:42:26;99779.78;;;3.90;100.00
52693;BME280;68218;51.012;-1.648;2024-03-08T05:44:53;99785.34;;;3.89;100.00
52693;BME280;68218;51.012;-1.648;2024-03-08T05:47:20;99784.31;;;3.90;100.00
52693;BME280;68218;51.012;-1.648;2024-03-08T05:49:45;99778.75;;;3.91;100.00
52693;BME280;68218;51.012;-1.648;2024-03-08T05:52:11;99781.66;;;3.90;100.00
52693;BME280;68218;51.012;-1.648;2024-03-08T05:54:36;99780.94;;;3.83;100.00
52693;BME280;68218;51.012;-1.648;2024-03-08T05:57:02;99783.38;;;3.84;100.00
52693;BME280;68218;51.012;-1.648;2024-03-08T05:59:28;99784.16;;;3.73;100.00
52693;BME280;68218;51.012;-1.648;2024-03-08T06:01:53;99783.47;;;3.78;100.00
52693;BME280;68218;51.012;-1.648;2024-03-08T06:04:18;99795.28;;;3.70;100.00
52693;BME280;68218;51.012;-1.648;2024-03-08T06:06:44;99800.75;;;3.75;100.00
52693;BME280;68218;51.012;-1.648;2024-03-08T06:09:09;99797.59;;;3.66;100.00
52693;BME280;68218;51.012;-1.648;2024-03-08T06:11:37;99800.97;;;3.62;100.00
52693;BME280;68218;51.012;-1.648;2024-03-08T06:14:03;99807.31;;;3.61;100.00
52693;BME280;68218;51.012;-1.648;2024-03-08T06:16:28;99802.22;;;3.59;100.00
52693;BME280;68218;51.012;-1.648;2024-03-08T06:18:55;99787.84;;;3.60;100.00
52693;BME280;68218;51.012;-1.648;2024-03-08T06:21:22;99782.78;;;3.70;100.00
52693;BME280;68218;51.012;-1.648;2024-03-08T06:23:48;99790.53;;;3.60;100.00
52693;BME280;68218;51.012;-1.648;2024-03-08T06:26:13;99788.66;;;3.61;100.00
52693;BME280;68218;51.012;-1.648;2024-03-08T06:28:38;99794.66;;;3.56;100.00
52693;BME280;68218;51.012;-1.648;2024-03-08T06:31:03;99801.75;;;3.62;100.00
52693;BME280;68218;51.012;-1.648;2024-03-08T06:33:29;99785.56;;;3.75;100.00
52693;BME280;68218;51.012;-1.648;2024-03-08T06:35:57;99793.34;;;3.77;100.00
52693;BME280;68218;51.012;-1.648;2024-03-08T06:38:23;99793.94;;;3.79;100.00
52693;BME280;68218;51.012;-1.648;2024-03-08T06:40:49;99787.75;;;3.67;100.00
52693;BME280;68218;51.012;-1.648;2024-03-08T06:43:16;99794.81;;;3.73;100.00
52693;BME280;68218;51.012;-1.648;2024-03-08T06:45:43;99799.00;;;3.69;100.00
52693;BME280;68218;51.012;-1.648;2024-03-08T06:48:19;99795.63;;;3.73;100.00
52693;BME280;68218;51.012;-1.648;2024-03-08T06:50:45;99796.13;;;3.70;100.00
52693;BME280;68218;51.012;-1.648;2024-03-08T06:53:11;99800.34;;;3.60;100.00
52693;BME280;68218;51.012;-1.648;2024-03-08T06:55:37;99808.59;;;3.70;100.00
52693;BME280;68218;51.012;-1.648;2024-03-08T06:58:02;99803.75;;;3.67;100.00
52693;BME280;68218;51.012;-1.648;2024-03-08T07:00:28;99797.13;;;3.69;100.00
52693;BME280;68218;51.012;-1.648;2024-03-08T07:02:56;99793.78;;;3.74;100.00
52693;BME280;68218;51.012;-1.648;2024-03-08T07:05:22;99798.28;;;3.73;100.00
52693;BME280;68218;51.012;-1.648;2024-03-08T07:07:49;99786.38;;;3.76;100.00
52693;BME280;68218;51.012;-1.648;2024-03-08T07:10:16;99778.16;;;3.78;100.00
52693;BME280;68218;51.012;-1.648;2024-03-08T07:12:41;99771.31;;;3.82;100.00
52693;BME280;68218;51.012;-1.648;2024-03-08T07:15:07;99772.13;;;3.94;99.58
52693;BME280;68218;51.012;-1.648;2024-03-08T07:17:33;99767.16;;;3.98;99.02
52693;BME280;68218;51.012;-1.648;2024-03-08T07:20:00;99768.09;;;4.03;98.59
52693;BME280;68218;51.012;-1.648;2024-03-08T07:22:32;99764.16;;;4.18;98.14
52693;BME280;68218;51.012;-1.648;2024-03-08T07:24:58;99761.94;;;4.26;96.79
52693;BME280;68218;51.012;-1.648;2024-03-08T07:27:43;99766.00;;;4.41;95.83
52693;BME280;68218;51.012;-1.648;2024-03-08T07:30:09;99759.50;;;4.37;96.19
52693;BME280;68218;51.012;-1.648;2024-03-08T07:32:35;99766.69;;;4.48;95.70
52693;BME280;68218;51.012;-1.648;2024-03-08T07:35:01;99769.13;;;4.49;95.69
52693;BME280;68218;51.012;-1.648;2024-03-08T07:37:27;99774.81;;;4.53;94.43
52693;BME280;68218;51.012;-1.648;2024-03-08T07:39:52;99764.91;;;4.65;94.75
52693;BME280;68218;51.012;-1.648;2024-03-08T07:42:17;99766.56;;;4.66;94.85
52693;BME280;68218;51.012;-1.648;2024-03-08T07:44:43;99767.09;;;4.80;92.83
52693;BME280;68218;51.012;-1.648;2024-03-08T07:47:08;99762.81;;;4.67;94.06
52693;BME280;68218;51.012;-1.648;2024-03-08T07:49:35;99751.31;;;4.79;93.28
52693;BME280;68218;51.012;-1.648;2024-03-08T07:52:01;99745.88;;;4.74;93.67
52693;BME280;68218;51.012;-1.648;2024-03-08T07:54:26;99746.75;;;4.91;93.24
52693;BME280;68218;51.012;-1.648;2024-03-08T07:56:52;99746.69;;;5.03;92.68
52693;BME280;68218;51.012;-1.648;2024-03-08T07:59:18;99740.41;;;5.09;92.32
52693;BME280;68218;51.012;-1.648;2024-03-08T08:01:43;99736.50;;;5.29;91.49
52693;BME280;68218;51.012;-1.648;2024-03-08T08:04:09;99733.50;;;5.25;91.28
52693;BME280;68218;51.012;-1.648;2024-03-08T08:06:40;99725.75;;;5.12;91.11
52693;BME280;68218;51.012;-1.648;2024-03-08T08:09:07;99730.34;;;5.28;91.01
52693;BME280;68218;51.012;-1.648;2024-03-08T08:11:42;99719.38;;;5.13;90.48
52693;BME280;68218;51.012;-1.648;2024-03-08T08:14:10;99721.25;;;5.29;91.30
52693;BME280;68218;51.012;-1.648;2024-03-08T08:16:36;99712.72;;;5.61;89.74
52693;BME280;68218;51.012;-1.648;2024-03-08T08:19:07;99701.44;;;5.59;89.18
52693;BME280;68218;51.012;-1.648;2024-03-08T08:21:36;99698.69;;;5.54;88.80
52693;BME280;68218;51.012;-1.648;2024-03-08T08:24:03;99698.84;;;5.64;89.19
52693;BME280;68218;51.012;-1.648;2024-03-08T08:26:28;99690.06;;;5.69;89.85
52693;BME280;68218;51.012;-1.648;2024-03-08T08:28:54;99696.25;;;5.69;88.20
52693;BME280;68218;51.012;-1.648;2024-03-08T08:31:19;99689.28;;;5.85;88.43
52693;BME280;68218;51.012;-1.648;2024-03-08T08:33:45;99682.81;;;5.81;88.05
52693;BME280;68218;51.012;-1.648;2024-03-08T08:36:10;99684.81;;;6.08;87.08
52693;BME280;68218;51.012;-1.648;2024-03-08T08:38:35;99680.84;;;5.93;86.72
52693;BME280;68218;51.012;-1.648;2024-03-08T08:41:01;99678.72;;;6.12;86.61
52693;BME280;68218;51.012;-1.648;2024-03-08T08:43:27;99670.75;;;6.17;85.33
52693;BME280;68218;51.012;-1.648;2024-03-08T08:45:53;99666.69;;;6.15;84.93
52693;BME280;68218;51.012;-1.648;2024-03-08T08:48:20;99660.31;;;6.38;85.26
52693;BME280;68218;51.012;-1.648;2024-03-08T08:50:45;99654.16;;;6.37;84.72
52693;BME280;68218;51.012;-1.648;2024-03-08T08:53:12;99645.34;;;6.20;84.21
52693;BME280;68218;51.012;-1.648;2024-03-08T08:55:40;99642.00;;;6.30;83.62
52693;BME280;68218;51.012;-1.648;2024-03-08T08:58:05;99643.34;;;6.54;83.58
52693;BME280;68218;51.012;-1.648;2024-03-08T09:00:32;99649.72;;;6.48;83.76
52693;BME280;68218;51.012;-1.648;2024-03-08T09:02:58;99631.41;;;6.40;82.83
52693;BME280;68218;51.012;-1.648;2024-03-08T09:05:23;99630.28;;;6.58;83.25
52693;BME280;68218;51.012;-1.648;2024-03-08T09:07:49;99620.22;;;6.70;82.60
52693;BME280;68218;51.012;-1.648;2024-03-08T09:10:15;99624.84;;;7.07;81.17
52693;BME280;68218;51.012;-1.648;2024-03-08T09:12:40;99615.16;;;7.01;80.38
52693;BME280;68218;51.012;-1.648;2024-03-08T09:15:06;99618.31;;;6.93;80.28
52693;BME280;68218;51.012;-1.648;2024-03-08T09:17:36;99627.75;;;7.33;80.14
52693;BME280;68218;51.012;-1.648;2024-03-08T09:20:05;99615.91;;;7.24;79.01
52693;BME280;68218;51.012;-1.648;2024-03-08T09:22:31;99606.63;;;7.04;79.72
52693;BME280;68218;51.012;-1.648;2024-03-08T09:24:57;99606.03;;;7.02;80.03
52693;BME280;68218;51.012;-1.648;2024-03-08T09:27:22;99607.00;;;7.18;79.88
52693;BME280;68218;51.012;-1.648;2024-03-08T09:29:48;99593.34;;;7.62;78.60
52693;BME280;68218;51.012;-1.648;2024-03-08T09:32:14;99603.66;;;7.38;77.28
52693;BME280;68218;51.012;-1.648;2024-03-08T09:34:39;99591.00;;;7.66;78.70
52693;BME280;68218;51.012;-1.648;2024-03-08T09:37:05;99596.78;;;7.95;77.04
52693;BME280;68218;51.012;-1.648;2024-03-08T09:39:30;99587.75;;;7.69;76.49
52693;BME280;68218;51.012;-1.648;2024-03-08T09:41:56;99592.94;;;7.81;76.68
52693;BME280;68218;51.012;-1.648;2024-03-08T09:44:22;99602.53;;;7.66;76.32
52693;BME280;68218;51.012;-1.648;2024-03-08T09:46:49;99591.22;;;7.59;77.18
52693;BME280;68218;51.012;-1.648;2024-03-08T09:49:16;99581.19;;;7.92;76.19
52693;BME280;68218;51.012;-1.648;2024-03-08T09:51:42;99576.41;;;8.04;75.95
52693;BME280;68218;51.012;-1.648;2024-03-08T09:54:07;99584.16;;;7.96;75.00
52693;BME280;68218;51.012;-1.648;2024-03-08T09:56:37;99584.00;;;8.18;74.42
52693;BME280;68218;51.012;-1.648;2024-03-08T09:59:03;99574.09;;;8.29;74.15
52693;BME280;68218;51.012;-1.648;2024-03-08T10:01:28;99581.59;;;8.27;73.52
52693;BME280;68218;51.012;-1.648;2024-03-08T10:03:54;99577.16;;;8.63;73.57
52693;BME280;68218;51.012;-1.648;2024-03-08T10:06:23;99575.03;;;8.80;72.93
52693;BME280;68218;51.012;-1.648;2024-03-08T10:08:49;99578.28;;;8.83;72.31
52693;BME280;68218;51.012;-1.648;2024-03-08T10:11:17;99564.84;;;8.98;71.66
52693;BME280;68218;51.012;-1.648;2024-03-08T10:13:42;99562.16;;;9.24;70.88
52693;BME280;68218;51.012;-1.648;2024-03-08T10:16:08;99558.09;;;9.31;69.50
52693;BME280;68218;51.012;-1.648;2024-03-08T10:18:33;99553.25;;;9.28;70.46
52693;BME280;68218;51.012;-1.648;2024-03-08T10:21:06;99544.91;;;9.40;70.50
52693;BME280;68218;51.012;-1.648;2024-03-08T10:23:32;99537.22;;;9.88;69.17
52693;BME280;68218;51.012;-1.648;2024-03-08T10:26:09;99523.41;;;10.10;67.81
52693;BME280;68218;51.012;-1.648;2024-03-08T10:28:34;99535.13;;;9.80;68.39
52693;BME280;68218;51.012;-1.648;2024-03-08T10:31:00;99530.31;;;9.67;69.20
52693;BME280;68218;51.012;-1.648;2024-03-08T10:33:25;99529.78;;;9.70;68.78
52693;BME280;68218;51.012;-1.648;2024-03-08T10:35:51;99518.88;;;10.06;66.92
52693;BME280;68218;51.012;-1.648;2024-03-08T10:38:19;99503.34;;;9.77;67.28
52693;BME280;68218;51.012;-1.648;2024-03-08T10:40:48;99507.19;;;10.21;67.58
52693;BME280;68218;51.012;-1.648;2024-03-08T10:43:23;99500.53;;;10.08;66.11
52693;BME280;68218;51.012;-1.648;2024-03-08T10:46:08;99491.41;;;9.99;65.56
52693;BME280;68218;51.012;-1.648;2024-03-08T10:48:43;99478.63;;;10.20;64.85
52693;BME280;68218;51.012;-1.648;2024-03-08T10:51:11;99481.63;;;10.18;65.83
52693;BME280;68218;51.012;-1.648;2024-03-08T10:53:38;99476.78;;;10.15;64.38
52693;BME280;68218;51.012;-1.648;2024-03-08T10:56:06;99471.09;;;10.61;64.58
52693;BME280;68218;51.012;-1.648;2024-03-08T10:58:33;99472.09;;;10.36;63.92
52693;BME280;68218;51.012;-1.648;2024-03-08T11:00:59;99473.44;;;10.39;64.73
52693;BME280;68218;51.012;-1.648;2024-03-08T11:06:08;99464.75;;;10.47;62.22
52693;BME280;68218;51.012;-1.648;2024-03-08T11:08:36;99461.25;;;10.76;61.90
52693;BME280;68218;51.012;-1.648;2024-03-08T11:11:02;99450.84;;;10.64;62.20
52693;BME280;68218;51.012;-1.648;2024-03-08T11:13:41;99458.09;;;10.98;61.71
52693;BME280;68218;51.012;-1.648;2024-03-08T11:16:10;99450.38;;;11.15;60.89
52693;BME280;68218;51.012;-1.648;2024-03-08T11:18:36;99442.66;;;11.03;60.80
52693;BME280;68218;51.012;-1.648;2024-03-08T11:21:08;99439.41;;;11.31;59.35
52693;BME280;68218;51.012;-1.648;2024-03-08T11:23:37;99446.53;;;11.21;60.17
52693;BME280;68218;51.012;-1.648;2024-03-08T11:26:03;99445.97;;;11.49;60.53
52693;BME280;68218;51.012;-1.648;2024-03-08T11:28:33;99440.31;;;11.69;59.07
52693;BME280;68218;51.012;-1.648;2024-03-08T11:33:30;99432.41;;;11.05;59.03
52693;BME280;68218;51.012;-1.648;2024-03-08T11:36:03;99424.53;;;10.85;57.30
52693;BME280;68218;51.012;-1.648;2024-03-08T11:38:53;99424.25;;;10.86;58.78
52693;BME280;68218;51.012;-1.648;2024-03-08T11:41:24;99422.25;;;10.68;57.81
52693;BME280;68218;51.012;-1.648;2024-03-08T11:44:04;99433.25;;;10.72;57.49
52693;BME280;68218;51.012;-1.648;2024-03-08T11:46:30;99432.25;;;11.21;57.84
52693;BME280;68218;51.012;-1.648;2024-03-08T11:48:55;99431.97;;;11.47;55.88
52693;BME280;68218;51.012;-1.648;2024-03-08T11:51:22;99436.66;;;11.60;56.16
52693;BME280;68218;51.012;-1.648;2024-03-08T11:53:49;99423.47;;;11.58;55.72
52693;BME280;68218;51.012;-1.648;2024-03-08T11:56:15;99440.09;;;11.66;56.13
52693;BME280;68218;51.012;-1.648;2024-03-08T11:58:41;99424.72;;;11.42;54.06
52693;BME280;68218;51.012;-1.648;2024-03-08T12:01:10;99422.88;;;11.13;55.19
52693;BME280;68218;51.012;-1.648;2024-03-08T12:03:39;99418.88;;;11.35;55.02
52693;BME280;68218;51.012;-1.648;2024-03-08T12:06:07;99422.75;;;11.48;55.28
52693;BME280;68218;51.012;-1.648;2024-03-08T12:08:35;99421.69;;;11.49;54.69
52693;BME280;68218;51.012;-1.648;2024-03-08T12:11:00;99421.69;;;11.49;55.74
52693;BME280;68218;51.012;-1.648;2024-03-08T12:13:27;99420.34;;;11.46;54.72
52693;BME280;68218;51.012;-1.648;2024-03-08T12:15:56;99409.56;;;11.65;55.15
52693;BME280;68218;51.012;-1.648;2024-03-08T12:18:22;99410.34;;;11.90;55.02
52693;BME280;68218;51.012;-1.648;2024-03-08T12:20:48;99416.31;;;11.87;53.74
52693;BME280;68218;51.012;-1.648;2024-03-08T12:23:15;99427.31;;;11.95;53.12
52693;BME280;68218;51.012;-1.648;2024-03-08T12:25:41;99398.06;;;11.78;56.07
52693;BME280;68218;51.012;-1.648;2024-03-08T12:28:11;99387.84;;;11.32;52.95
52693;BME280;68218;51.012;-1.648;2024-03-08T12:30:51;99391.06;;;11.58;54.55
52693;BME280;68218;51.012;-1.648;2024-03-08T12:33:19;99370.88;;;11.51;53.29
52693;BME280;68218;51.012;-1.648;2024-03-08T12:35:52;99372.88;;;11.83;52.22
52693;BME280;68218;51.012;-1.648;2024-03-08T12:38:21;99359.97;;;11.99;51.59
52693;BME280;68218;51.012;-1.648;2024-03-08T12:40:58;99364.63;;;12.45;52.27
52693;BME280;68218;51.012;-1.648;2024-03-08T12:43:23;99365.47;;;12.46;51.57
52693;BME280;68218;51.012;-1.648;2024-03-08T12:45:48;99352.16;;;12.49;50.00
52693;BME280;68218;51.012;-1.648;2024-03-08T12:48:14;99346.56;;;12.60;50.42
52693;BME280;68218;51.012;-1.648;2024-03-08T12:50:40;99344.28;;;13.08;51.73
52693;BME280;68218;51.012;-1.648;2024-03-08T12:53:06;99331.22;;;13.24;51.08